Time;durP1;ratioP1;P1;durP2;ratioP2;P2;SDS_P1;SDS_P2;PMS_P1;PMS_P2;Temp;Humidity;BMP_temperature;BMP_pressure;BME280_temperature;BME280_humidity;BME280_pressure;Samples;Min_cycle;Max_cycle;Signal;HPM_P1;HPM_P2
2023/10/13 00:01:21;;;;;;;80.28;24.95;;;13.50;99.90;;;;;;5103583;28;20057;-77
2023/10/13 00:03:47;;;;;;;81.68;25.70;;;13.60;99.90;;;;;;5105267;28;20028;-77
2023/10/13 00:06:13;;;;;;;80.80;23.58;;;13.60;99.90;;;;;;5103998;28;20043;-77
2023/10/13 00:08:39;;;;;;;80.43;24.63;;;13.60;99.90;;;;;;5105235;28;20020;-77
2023/10/13 00:11:11;;;;;;;81.70;25.45;;;13.50;99.90;;;;;;5104297;28;20035;-76
2023/10/13 00:13:50;;;;;;;79.25;25.33;;;13.60;99.90;;;;;;5103227;28;20435;-76
2023/10/13 00:16:27;;;;;;;86.13;25.92;;;13.60;99.90;;;;;;5103335;28;20043;-75
2023/10/13 00:18:57;;;;;;;82.53;25.88;;;13.60;99.90;;;;;;5103584;28;20027;-76
2023/10/13 00:21:35;;;;;;;78.75;25.05;;;13.60;99.90;;;;;;5104842;28;20107;-77
2023/10/13 00:24:01;;;;;;;80.45;26.60;;;13.60;99.90;;;;;;5104691;28;20107;-77
2023/10/13 00:26:29;;;;;;;91.05;27.25;;;13.60;99.90;;;;;;5104866;28;20047;-77
2023/10/13 00:29:09;;;;;;;80.47;25.10;;;13.70;99.90;;;;;;5102777;28;20035;-76
2023/10/13 00:31:42;;;;;;;78.88;25.55;;;13.60;99.90;;;;;;5103567;28;20043;-77
2023/10/13 00:34:18;;;;;;;88.38;25.95;;;13.70;99.90;;;;;;5104573;28;20019;-75
2023/10/13 00:39:28;;;;;;;;;;;13.70;99.90;;;;;;5105127;28;20046;-77
2023/10/13 00:42:06;;;;;;;84.20;25.55;;;13.70;99.90;;;;;;5102812;28;19904;-76
2023/10/13 00:44:41;;;;;;;97.68;27.30;;;13.80;99.90;;;;;;5104405;28;20122;-75
2023/10/13 00:47:09;;;;;;;100.85;28.67;;;13.70;99.90;;;;;;5103350;28;20117;-76
2023/10/13 00:49:39;;;;;;;103.82;28.85;;;13.70;99.90;;;;;;5103468;28;20051;-77
2023/10/13 00:52:06;;;;;;;96.40;28.20;;;13.70;99.90;;;;;;5104239;28;20016;-76
2023/10/13 00:54:36;;;;;;;110.90;29.15;;;13.80;99.90;;;;;;5102963;28;20504;-77
2023/10/13 00:57:11;;;;;;;98.60;28.50;;;13.70;99.90;;;;;;5102719;28;20075;-77
2023/10/13 00:59:37;;;;;;;104.10;28.95;;;13.80;99.90;;;;;;5104286;28;20020;-76
2023/10/13 01:04:49;;;;;;;121.63;31.40;;;13.80;99.90;;;;;;5101691;28;20036;-76
2023/10/13 01:07:22;;;;;;;143.93;32.00;;;13.80;99.90;;;;;;5102246;28;20465;-76
2023/10/13 01:09:47;;;;;;;115.35;30.70;;;13.80;99.90;;;;;;5102485;28;20021;-76
2023/10/13 01:12:14;;;;;;;119.03;31.58;;;13.90;99.90;;;;;;5102515;28;20055;-76
2023/10/13 01:14:40;;;;;;;131.23;33.33;;;13.90;99.90;;;;;;5102171;28;20502;-77
2023/10/13 01:17:06;;;;;;;138.50;34.92;;;13.90;99.90;;;;;;5104061;28;20032;-77
2023/10/13 01:19:38;;;;;;;153.05;33.92;;;13.90;99.90;;;;;;5102102;28;20074;-78
2023/10/13 01:22:06;;;;;;;141.38;34.45;;;13.90;99.90;;;;;;5102548;28;20035;-77
2023/10/13 01:24:34;;;;;;;136.02;35.88;;;14.00;99.90;;;;;;5101405;28;20046;-77
2023/10/13 01:27:14;;;;;;;142.48;37.05;;;14.00;99.90;;;;;;5101463;28;20024;-78
2023/10/13 01:29:40;;;;;;;163.35;37.90;;;14.00;99.90;;;;;;5101297;28;20039;-76
2023/10/13 01:32:06;;;;;;;159.35;39.30;;;14.10;99.90;;;;;;5102954;28;20016;-77
2023/10/13 01:34:33;;;;;;;178.82;40.45;;;14.10;99.90;;;;;;5100364;28;20174;-77
2023/10/13 01:37:05;;;;;;;178.00;41.83;;;14.10;99.90;;;;;;5102731;28;20024;-78
2023/10/13 01:39:31;;;;;;;179.13;42.53;;;14.20;99.90;;;;;;5101017;28;20035;-78
2023/10/13 01:41:57;;;;;;;194.18;42.55;;;14.20;99.90;;;;;;5101720;28;20403;-77
2023/10/13 01:44:34;;;;;;;230.10;47.75;;;14.30;99.90;;;;;;5101025;28;20073;-78
2023/10/13 01:47:07;;;;;;;290.35;49.05;;;14.30;99.90;;;;;;5102506;28;20036;-71
2023/10/13 01:49:43;;;;;;;288.48;48.72;;;14.30;99.90;;;;;;5102664;28;20041;-73
2023/10/13 01:52:11;;;;;;;277.70;49.47;;;14.40;99.90;;;;;;5100060;28;20054;-76
2023/10/13 01:54:40;;;;;;;285.75;49.30;;;14.40;99.90;;;;;;5099423;28;20047;-74
2023/10/13 01:57:13;;;;;;;305.35;53.53;;;14.40;99.90;;;;;;5102210;28;20040;-74
2023/10/13 01:59:43;;;;;;;319.23;52.03;;;14.50;99.90;;;;;;5100303;28;20121;-77
2023/10/13 02:02:12;;;;;;;317.58;51.90;;;14.50;99.90;;;;;;5101925;28;20025;-76
2023/10/13 02:04:43;;;;;;;299.15;48.88;;;14.50;99.90;;;;;;5102250;28;20076;-78
2023/10/13 02:07:14;;;;;;;292.10;51.67;;;14.50;99.90;;;;;;5100598;28;20035;-77
2023/10/13 02:09:42;;;;;;;299.80;51.45;;;14.60;99.90;;;;;;5100058;28;20028;-78
2023/10/13 02:12:09;;;;;;;288.67;50.35;;;14.60;99.90;;;;;;5102130;28;20039;-75
2023/10/13 02:14:38;;;;;;;280.45;52.28;;;14.60;99.90;;;;;;5100391;28;20061;-74
2023/10/13 02:17:12;;;;;;;270.77;52.60;;;14.60;99.90;;;;;;5100390;28;20093;-75
2023/10/13 02:19:43;;;;;;;331.52;54.50;;;14.60;99.90;;;;;;5102609;28;20016;-76
2023/10/13 02:22:10;;;;;;;255.75;51.28;;;14.70;99.90;;;;;;5100756;28;20024;-79
2023/10/13 02:24:39;;;;;;;302.23;52.30;;;14.70;99.90;;;;;;5102172;28;20020;-76
2023/10/13 02:27:13;;;;;;;260.80;51.42;;;14.80;99.90;;;;;;5099264;28;20024;-74
2023/10/13 02:29:45;;;;;;;252.68;51.55;;;14.80;99.90;;;;;;5099889;28;20036;-74
2023/10/13 02:32:18;;;;;;;228.70;49.30;;;14.90;99.90;;;;;;5100158;28;20084;-76
2023/10/13 02:34:44;;;;;;;260.02;49.28;;;14.90;99.90;;;;;;5099603;28;20054;-77
2023/10/13 02:37:12;;;;;;;280.42;52.08;;;14.90;99.90;;;;;;5099137;28;20044;-75
2023/10/13 02:39:41;;;;;;;256.70;53.40;;;14.90;99.90;;;;;;5101651;28;20031;-76
2023/10/13 02:42:07;;;;;;;263.15;53.50;;;15.00;99.90;;;;;;5101237;28;20477;-74
2023/10/13 02:44:36;;;;;;;258.60;52.50;;;15.00;99.90;;;;;;5100857;28;20031;-77
2023/10/13 02:47:13;;;;;;;264.75;53.20;;;15.00;99.90;;;;;;5101420;28;20024;-81
2023/10/13 02:49:42;;;;;;;228.68;48.95;;;15.00;99.90;;;;;;5099001;28;20024;-81
2023/10/13 02:52:11;;;;;;;266.20;55.10;;;15.10;99.90;;;;;;5099858;28;20024;-75
2023/10/13 02:54:42;;;;;;;314.05;57.13;;;15.10;99.90;;;;;;5099433;28;20060;-78
2023/10/13 02:57:08;;;;;;;269.35;53.78;;;15.10;99.90;;;;;;5099954;28;20040;-78
2023/10/13 02:59:58;;;;;;;253.15;52.67;;;15.10;99.90;;;;;;5099663;28;20088;-76
2023/10/13 03:02:25;;;;;;;276.92;59.45;;;15.10;99.90;;;;;;5101020;28;20016;-76
2023/10/13 03:04:59;;;;;;;289.65;57.33;;;15.10;99.90;;;;;;5100328;28;20027;-78
2023/10/13 03:07:31;;;;;;;260.85;55.10;;;15.20;99.90;;;;;;5102402;28;20024;-76
2023/10/13 03:10:01;;;;;;;302.48;57.33;;;15.20;99.90;;;;;;5100776;28;20461;-77
2023/10/13 03:12:33;;;;;;;314.23;62.10;;;15.20;99.90;;;;;;5101490;28;20035;-77
2023/10/13 03:15:12;;;;;;;259.15;56.22;;;15.20;99.90;;;;;;5100760;28;20118;-76
2023/10/13 03:17:43;;;;;;;265.40;57.90;;;15.20;99.90;;;;;;5100196;28;20484;-79
2023/10/13 03:20:14;;;;;;;284.83;57.95;;;15.20;99.90;;;;;;5101101;28;20516;-77
2023/10/13 03:22:40;;;;;;;245.20;53.72;;;15.30;99.90;;;;;;5101794;28;20028;-75
2023/10/13 03:25:08;;;;;;;279.92;60.63;;;15.30;99.90;;;;;;5100138;28;20485;-77
2023/10/13 03:28:07;;;;;;;299.13;60.95;;;15.30;99.90;;;;;;5101857;28;20012;-78
2023/10/13 03:30:35;;;;;;;339.65;59.65;;;15.30;99.90;;;;;;5101350;28;20032;-78
2023/10/13 03:33:12;;;;;;;347.17;65.88;;;15.40;99.90;;;;;;5098014;28;20032;-75
2023/10/13 03:35:42;;;;;;;309.08;68.22;;;15.40;99.90;;;;;;5100942;28;20392;-76
2023/10/13 03:38:17;;;;;;;403.30;69.13;;;15.30;99.90;;;;;;5099720;28;20082;-76
2023/10/13 03:40:48;;;;;;;266.02;58.00;;;15.30;99.90;;;;;;5100983;28;20038;-75
2023/10/13 03:43:16;;;;;;;260.88;58.03;;;15.40;99.90;;;;;;5099390;28;20087;-78
2023/10/13 03:45:48;;;;;;;343.75;64.15;;;15.40;99.90;;;;;;5100805;28;20042;-77
2023/10/13 03:51:16;;;;;;;311.90;60.42;;;15.40;99.90;;;;;;5101276;28;20036;-76
2023/10/13 03:53:54;;;;;;;275.98;59.28;;;15.40;99.90;;;;;;5099225;28;20130;-82
2023/10/13 03:56:44;;;;;;;311.17;63.08;;;15.40;99.90;;;;;;5100038;28;20043;-78
2023/10/13 03:59:17;;;;;;;270.42;55.88;;;15.40;99.90;;;;;;5098586;28;20080;-78
2023/10/13 04:01:49;;;;;;;289.27;60.25;;;15.50;99.90;;;;;;5100810;28;20129;-77
2023/10/13 04:15:14;;;;;;;244.35;54.58;;;15.50;99.90;;;;;;5100773;28;20032;-79
2023/10/13 04:17:14;;;;;;;269.02;54.63;;;15.50;99.90;;;;;;5100403;28;20550;-78
2023/10/13 04:20:12;;;;;;;232.70;53.08;;;15.50;99.90;;;;;;5100598;28;20424;-80
2023/10/13 04:38:56;;;;;;;213.55;46.88;;;15.60;99.90;;;;;;5103919;28;20048;-79
2023/10/13 04:42:13;;;;;;;253.57;54.85;;;15.60;99.90;;;;;;5103815;28;20028;-82
2023/10/13 04:57:25;;;;;;;232.75;51.85;;;15.60;99.90;;;;;;5103562;28;20032;-77
2023/10/13 05:02:43;;;;;;;201.20;49.17;;;15.60;99.90;;;;;;5103897;28;20020;-76
2023/10/13 05:49:49;;;;;;;197.13;46.53;;;15.70;99.90;;;;;;5090808;28;20094;-74
2023/10/13 05:52:19;;;;;;;198.63;45.97;;;15.70;99.90;;;;;;5097886;28;20056;-72
2023/10/13 06:30:22;;;;;;;219.60;50.17;;;15.70;99.90;;;;;;5102506;28;20040;-75
2023/10/13 06:32:49;;;;;;;204.63;47.85;;;15.70;99.90;;;;;;5100602;28;20534;-75
2023/10/13 06:35:24;;;;;;;202.90;47.47;;;15.70;99.90;;;;;;5102502;28;20681;-76
2023/10/13 06:37:51;;;;;;;197.35;47.13;;;15.80;99.90;;;;;;5102212;28;20114;-75
2023/10/13 06:40:25;;;;;;;186.02;44.83;;;15.70;99.90;;;;;;5102102;28;20024;-71
2023/10/13 06:43:03;;;;;;;207.73;48.67;;;15.80;99.90;;;;;;5101530;28;20016;-75
2023/10/13 06:45:35;;;;;;;229.10;49.42;;;15.70;99.90;;;;;;5100652;28;20138;-74
2023/10/13 06:48:01;;;;;;;207.68;49.60;;;15.80;99.90;;;;;;5100686;28;20032;-71
2023/10/13 06:50:28;;;;;;;181.18;47.53;;;15.80;99.90;;;;;;5102441;28;20016;-74
2023/10/13 06:52:54;;;;;;;190.02;46.08;;;15.80;99.90;;;;;;5102179;28;20027;-73
2023/10/13 06:55:27;;;;;;;166.80;42.22;;;15.80;99.90;;;;;;5100074;28;20064;-72
2023/10/13 06:58:01;;;;;;;180.23;45.30;;;15.80;99.90;;;;;;5100792;28;20135;-72
2023/10/13 07:00:50;;;;;;;158.98;43.42;;;15.80;99.90;;;;;;5099933;28;20396;-73
2023/10/13 07:03:18;;;;;;;135.70;39.63;;;15.80;99.90;;;;;;5100670;28;20024;-72
2023/10/13 07:05:47;;;;;;;145.65;40.97;;;15.80;99.90;;;;;;5101089;28;20024;-75
2023/10/13 07:08:19;;;;;;;161.57;44.03;;;15.80;99.90;;;;;;5101081;28;20044;-71
2023/10/13 07:11:05;;;;;;;197.05;47.17;;;15.80;99.90;;;;;;5101446;28;20024;-72
2023/10/13 07:13:38;;;;;;;178.73;45.47;;;15.80;99.90;;;;;;5100846;28;20028;-72
2023/10/13 07:16:13;;;;;;;211.93;47.28;;;15.80;99.90;;;;;;5101364;28;20021;-73
2023/10/13 07:19:04;;;;;;;183.55;45.30;;;15.80;99.90;;;;;;5101547;28;20024;-75
2023/10/13 07:21:33;;;;;;;161.73;43.70;;;15.80;99.90;;;;;;5101405;28;20107;-71
2023/10/13 07:24:10;;;;;;;155.02;42.13;;;15.80;99.90;;;;;;5102157;28;20462;-73
2023/10/13 07:26:46;;;;;;;168.07;44.45;;;15.70;99.90;;;;;;5101403;28;20016;-73
2023/10/13 07:29:13;;;;;;;149.98;40.78;;;15.80;99.90;;;;;;5101616;28;20031;-70
2023/10/13 07:31:41;;;;;;;171.13;44.47;;;15.70;99.90;;;;;;5101624;28;20070;-70
2023/10/13 07:34:16;;;;;;;173.75;44.13;;;15.70;99.90;;;;;;5099765;28;20032;-77
2023/10/13 07:36:43;;;;;;;212.10;47.72;;;15.70;99.90;;;;;;5100293;28;20130;-74
2023/10/13 07:39:23;;;;;;;162.57;44.45;;;15.80;99.90;;;;;;5099783;28;20016;-71
2023/10/13 07:41:54;;;;;;;183.52;46.20;;;15.70;99.90;;;;;;5100579;28;20032;-76
2023/10/13 07:44:31;;;;;;;201.63;49.20;;;15.80;99.90;;;;;;5100307;28;20024;-73
2023/10/13 07:47:02;;;;;;;215.77;50.63;;;15.70;99.90;;;;;;5100153;28;20050;-71
2023/10/13 07:49:32;;;;;;;260.70;54.83;;;15.80;99.90;;;;;;5100541;28;20035;-75
2023/10/13 07:54:56;;;;;;;188.43;47.03;;;15.80;99.90;;;;;;5100200;28;20075;-73
2023/10/13 07:57:29;;;;;;;141.38;40.10;;;15.80;99.90;;;;;;5099778;28;20032;-69
2023/10/13 08:00:06;;;;;;;136.25;39.50;;;15.80;99.90;;;;;;5101131;28;20016;-68
2023/10/13 08:02:51;;;;;;;161.27;44.97;;;15.80;99.90;;;;;;5097695;28;20109;-77
2023/10/13 08:05:39;;;;;;;161.60;45.13;;;15.80;99.90;;;;;;5100294;28;20477;-71
2023/10/13 08:08:14;;;;;;;121.30;37.10;;;15.80;99.90;;;;;;5102872;28;20058;-75
2023/10/13 08:10:41;;;;;;;125.72;37.38;;;15.80;99.90;;;;;;5104559;28;20020;-75
2023/10/13 08:13:12;;;;;;;123.03;37.40;;;15.80;99.90;;;;;;5103539;28;20024;-75
2023/10/13 08:15:47;;;;;;;122.07;37.65;;;15.80;99.90;;;;;;5102327;28;20032;-74
2023/10/13 08:18:35;;;;;;;138.57;40.08;;;15.80;99.90;;;;;;5102590;28;20104;-72
2023/10/13 08:21:16;;;;;;;112.20;37.63;;;15.80;99.90;;;;;;5104000;28;20020;-71
2023/10/13 08:31:42;;;;;;;98.00;34.97;;;16.00;99.90;;;;;;5105024;28;20028;-73
2023/10/13 08:34:15;;;;;;;91.00;35.05;;;16.00;99.90;;;;;;5105057;28;20028;-72
2023/10/13 08:36:41;;;;;;;77.57;31.20;;;16.10;99.90;;;;;;5103576;28;20059;-74
2023/10/13 08:39:57;;;;;;;98.97;33.88;;;16.10;99.90;;;;;;5103538;28;20461;-72
2023/10/13 08:42:13;;;;;;;65.30;26.05;;;16.10;99.90;;;;;;5104344;28;20032;-74
2023/10/13 08:44:52;;;;;;;62.95;26.35;;;16.20;99.90;;;;;;5103018;28;20028;-72
2023/10/13 08:47:24;;;;;;;68.88;27.33;;;16.20;99.90;;;;;;5104942;28;20043;-72
2023/10/13 08:49:52;;;;;;;84.10;29.58;;;16.20;99.90;;;;;;5101054;28;20099;-71
2023/10/13 08:55:38;;;;;;;63.17;24.35;;;16.30;99.90;;;;;;5101345;28;20108;-73
2023/10/13 08:58:13;;;;;;;53.20;23.40;;;16.20;99.90;;;;;;5103514;28;20048;-77
2023/10/13 09:01:11;;;;;;;63.25;22.83;;;16.30;99.90;;;;;;5102799;28;20024;-73
2023/10/13 09:03:42;;;;;;;59.50;22.50;;;16.30;99.90;;;;;;5100418;28;20575;-73
2023/10/13 09:06:19;;;;;;;64.32;23.10;;;16.20;99.90;;;;;;5103469;28;20123;-73
2023/10/13 09:09:05;;;;;;;64.95;24.48;;;16.30;99.90;;;;;;5104322;28;20070;-73
2023/10/13 09:11:48;;;;;;;50.22;20.75;;;16.20;99.90;;;;;;5103896;28;20053;-73
2023/10/13 09:14:33;;;;;;;49.75;20.27;;;16.30;99.90;;;;;;5103917;28;20040;-73
2023/10/13 09:19:57;;;;;;;53.60;20.15;;;16.20;99.90;;;;;;5103158;28;20024;-74
2023/10/13 09:22:35;;;;;;;60.97;23.52;;;16.20;99.90;;;;;;5102585;28;20635;-71
2023/10/13 09:25:05;;;;;;;52.03;22.55;;;16.30;99.90;;;;;;5103732;28;20020;-74
2023/10/13 09:27:33;;;;;;;61.90;23.00;;;16.30;99.90;;;;;;5101826;28;20028;-75
2023/10/13 09:32:45;;;;;;;60.83;23.88;;;16.30;99.90;;;;;;5103132;28;20036;-75
2023/10/13 09:35:18;;;;;;;48.30;20.85;;;16.30;99.90;;;;;;5103324;28;20028;-76
2023/10/13 09:37:48;;;;;;;61.15;24.17;;;16.30;99.90;;;;;;5102244;28;20507;-76
2023/10/13 09:43:07;;;;;;;62.17;23.02;;;16.30;99.90;;;;;;5103423;28;20091;-74
2023/10/13 09:45:43;;;;;;;58.92;22.05;;;16.40;99.90;;;;;;5103508;28;20032;-72
2023/10/13 09:48:21;;;;;;;64.68;25.83;;;16.40;99.90;;;;;;5103105;28;20016;-76
2023/10/13 09:50:48;;;;;;;54.95;23.23;;;16.50;99.90;;;;;;5103429;28;20087;-70
2023/10/13 09:53:23;;;;;;;61.22;24.80;;;16.50;99.90;;;;;;5103240;28;20078;-76
2023/10/13 09:56:01;;;;;;;56.35;24.13;;;16.60;99.90;;;;;;5100945;28;20036;-74
2023/10/13 09:58:35;;;;;;;55.90;25.73;;;16.70;99.90;;;;;;5100463;28;20059;-74
2023/10/13 10:01:10;;;;;;;57.85;25.23;;;16.80;99.90;;;;;;5102362;28;20031;-77
2023/10/13 10:04:07;;;;;;;56.53;25.00;;;16.80;99.90;;;;;;5102640;28;20024;-74
2023/10/13 10:06:39;;;;;;;67.20;25.27;;;16.80;99.90;;;;;;5101571;28;20156;-73
2023/10/13 10:09:12;;;;;;;57.83;25.27;;;16.90;99.90;;;;;;5102047;28;20016;-78
2023/10/13 10:12:18;;;;;;;58.45;23.95;;;17.00;99.90;;;;;;5100614;28;20028;-69
2023/10/13 10:14:59;;;;;;;50.60;23.25;;;17.00;99.90;;;;;;5100469;28;20478;-70
2023/10/13 10:17:29;;;;;;;48.70;24.00;;;17.10;99.90;;;;;;5101092;28;20044;-75
2023/10/13 10:19:56;;;;;;;50.60;23.75;;;17.10;99.90;;;;;;5100761;28;20478;-72
2023/10/13 10:22:33;;;;;;;52.15;24.60;;;17.10;99.90;;;;;;5101938;28;20026;-74
2023/10/13 10:25:02;;;;;;;58.80;24.40;;;17.20;99.90;;;;;;5102068;28;20054;-77
2023/10/13 10:27:29;;;;;;;49.42;24.40;;;17.20;99.90;;;;;;5100835;28;20052;-78
2023/10/13 10:29:56;;;;;;;51.95;25.67;;;17.30;99.90;;;;;;5102816;28;20028;-74
2023/10/13 10:32:32;;;;;;;54.20;24.90;;;17.30;99.90;;;;;;5102543;28;20103;-74
2023/10/13 10:35:14;;;;;;;44.50;23.35;;;17.40;99.90;;;;;;5102030;28;20016;-72
2023/10/13 10:37:46;;;;;;;51.17;25.23;;;17.50;99.90;;;;;;5102414;28;20044;-76
2023/10/13 10:40:41;;;;;;;44.28;24.45;;;17.60;99.90;;;;;;5101436;28;20083;-72
2023/10/13 10:43:03;;;;;;;51.25;24.45;;;17.70;99.90;;;;;;5102068;28;20020;-74
2023/10/13 10:45:35;;;;;;;55.10;25.38;;;17.70;99.90;;;;;;5102769;28;20012;-76
2023/10/13 10:48:16;;;;;;;44.47;23.20;;;17.70;99.90;;;;;;5101657;28;20024;-75
2023/10/13 10:50:42;;;;;;;50.13;25.52;;;17.70;99.90;;;;;;5102225;28;20015;-72
2023/10/13 10:53:08;;;;;;;47.58;25.20;;;17.70;99.90;;;;;;5102658;28;20077;-71
2023/10/13 10:55:36;;;;;;;49.78;25.65;;;17.70;99.90;;;;;;5101678;28;20043;-77
2023/10/13 10:58:05;;;;;;;52.33;25.73;;;17.70;99.90;;;;;;5101699;28;20039;-73
2023/10/13 11:01:01;;;;;;;43.10;22.92;;;17.80;99.90;;;;;;5100813;28;20075;-69
2023/10/13 11:03:22;;;;;;;47.45;23.27;;;17.70;99.90;;;;;;5101604;28;20057;-74
2023/10/13 11:05:50;;;;;;;47.83;23.70;;;17.80;99.90;;;;;;5101722;28;20039;-68
2023/10/13 11:08:37;;;;;;;44.35;21.98;;;17.80;99.90;;;;;;5101637;28;20016;-74
2023/10/13 11:11:17;;;;;;;45.38;23.35;;;17.90;99.90;;;;;;5102073;28;20035;-75
2023/10/13 11:13:50;;;;;;;40.85;22.75;;;17.90;99.90;;;;;;5102217;28;20020;-72
2023/10/13 11:16:33;;;;;;;40.97;18.92;;;17.90;99.90;;;;;;5102175;28;20016;-72
2023/10/13 11:19:05;;;;;;;38.03;18.88;;;18.00;99.90;;;;;;5101396;28;20035;-74
2023/10/13 11:21:31;;;;;;;39.85;18.98;;;18.00;99.90;;;;;;5100758;28;20032;-73
2023/10/13 11:23:59;;;;;;;32.65;17.80;;;18.00;99.90;;;;;;5100860;28;20050;-75
2023/10/13 11:26:47;;;;;;;39.75;14.57;;;18.10;99.90;;;;;;5101598;28;20032;-69
2023/10/13 11:29:13;;;;;;;33.97;17.00;;;18.10;99.90;;;;;;5101714;28;20028;-72
2023/10/13 11:31:39;;;;;;;31.33;16.42;;;18.10;99.90;;;;;;5101721;28;20030;-74
2023/10/13 11:34:05;;;;;;;38.70;15.70;;;18.10;99.90;;;;;;5101710;28;20020;-71
2023/10/13 11:36:33;;;;;;;34.78;14.40;;;18.20;99.90;;;;;;5099754;28;20067;-72
2023/10/13 11:38:58;;;;;;;33.42;14.40;;;18.20;99.90;;;;;;5101703;28;20023;-72
2023/10/13 11:41:32;;;;;;;28.98;13.20;;;18.20;99.90;;;;;;5102564;28;20048;-73
2023/10/13 11:44:23;;;;;;;24.00;13.33;;;18.30;99.90;;;;;;5105999;28;20054;-67
2023/10/13 11:46:55;;;;;;;33.47;11.65;;;18.30;99.90;;;;;;5105925;28;20133;-72
2023/10/13 11:51:49;;;;;;;26.48;10.68;;;18.30;99.90;;;;;;5105321;28;20020;-71
2023/10/13 11:54:19;;;;;;;32.50;11.93;;;18.30;99.90;;;;;;5103586;28;20094;-72
2023/10/13 11:56:45;;;;;;;24.83;12.10;;;18.40;99.90;;;;;;5105113;28;20406;-72
2023/10/13 11:59:18;;;;;;;24.27;11.40;;;18.40;99.90;;;;;;5105493;28;20027;-72
2023/10/13 12:12:25;;;;;;;25.30;10.38;;;18.60;99.90;;;;;;5105163;28;20024;-71
2023/10/13 12:14:55;;;;;;;23.77;10.85;;;18.60;99.90;;;;;;5105509;28;20024;-71
2023/10/13 12:17:34;;;;;;;22.67;10.38;;;18.70;99.90;;;;;;5104536;28;20113;-70
2023/10/13 12:20:10;;;;;;;19.60;9.98;;;18.70;99.90;;;;;;5104679;28;20024;-69
2023/10/13 12:22:42;;;;;;;29.52;10.13;;;18.80;99.90;;;;;;5105359;28;20059;-72
2023/10/13 12:28:18;;;;;;;23.20;9.93;;;18.80;99.90;;;;;;5103712;28;20473;-76
2023/10/13 12:30:52;;;;;;;25.08;9.43;;;18.90;99.90;;;;;;5104789;28;20032;-71
2023/10/13 12:33:24;;;;;;;22.55;9.60;;;18.90;99.90;;;;;;5104314;28;20028;-73
2023/10/13 12:36:08;;;;;;;23.13;9.32;;;18.90;99.90;;;;;;5104458;28;20449;-70
2023/10/13 12:52:31;;;;;;;28.15;9.32;;;19.30;99.90;;;;;;5103429;28;20032;-72
2023/10/13 12:57:33;;;;;;;25.75;9.20;;;19.40;99.90;;;;;;5104699;28;20128;-70
2023/10/13 12:59:58;;;;;;;26.13;8.90;;;19.50;99.90;;;;;;5104495;28;20024;-68
2023/10/13 13:02:26;;;;;;;25.58;9.13;;;19.40;99.90;;;;;;5103223;28;20055;-72
2023/10/13 13:05:02;;;;;;;30.38;9.02;;;19.40;99.90;;;;;;5104359;28;20024;-72
2023/10/13 13:07:29;;;;;;;20.48;8.32;;;19.40;99.90;;;;;;5102741;28;20546;-69
2023/10/13 13:09:58;;;;;;;22.65;8.60;;;19.30;99.90;;;;;;5103120;28;20501;-73
2023/10/13 13:12:25;;;;;;;23.42;8.32;;;19.30;99.90;;;;;;5104182;28;20020;-74
2023/10/13 13:14:54;;;;;;;23.52;8.93;;;19.40;99.90;;;;;;5103509;28;20381;-69
2023/10/13 13:17:21;;;;;;;17.92;8.45;;;19.40;99.90;;;;;;5102786;28;20036;-73
2023/10/13 13:19:47;;;;;;;23.60;8.57;;;19.30;99.90;;;;;;5102918;28;20027;-70
2023/10/13 13:22:12;;;;;;;22.95;8.70;;;19.30;99.90;;;;;;5103637;28;20031;-70
2023/10/13 13:24:46;;;;;;;20.20;8.68;;;19.30;99.90;;;;;;5102375;28;20063;-70
2023/10/13 13:27:13;;;;;;;18.92;7.97;;;19.30;99.90;;;;;;5103449;28;20115;-69
2023/10/13 13:29:40;;;;;;;16.48;7.45;;;19.30;99.90;;;;;;5103558;28;20028;-69
2023/10/13 13:32:17;;;;;;;25.70;8.70;;;19.20;99.90;;;;;;5104039;28;20016;-72
2023/10/13 13:34:43;;;;;;;18.25;8.18;;;19.20;99.90;;;;;;5102740;28;20051;-68
2023/10/13 13:37:12;;;;;;;29.83;8.93;;;19.20;99.90;;;;;;5102374;28;20430;-67
2023/10/13 13:39:43;;;;;;;18.92;9.43;;;19.30;99.90;;;;;;5103721;28;20016;-67
2023/10/13 13:42:09;;;;;;;26.40;10.13;;;19.30;99.90;;;;;;5103971;28;20103;-71
2023/10/13 13:44:38;;;;;;;26.90;9.43;;;19.20;99.90;;;;;;5103781;28;20028;-71
2023/10/13 13:47:11;;;;;;;22.77;9.07;;;19.20;99.90;;;;;;5102793;28;20028;-73
2023/10/13 13:49:50;;;;;;;26.95;9.13;;;19.20;99.90;;;;;;5103908;28;20076;-70
2023/10/13 13:52:21;;;;;;;21.63;8.90;;;19.20;99.90;;;;;;5102642;28;20502;-68
2023/10/13 13:54:47;;;;;;;21.70;8.07;;;19.20;99.90;;;;;;5103345;28;20107;-69
2023/10/13 13:57:13;;;;;;;25.63;10.02;;;19.20;99.90;;;;;;5102916;28;20044;-71
2023/10/13 13:59:39;;;;;;;29.92;10.00;;;19.30;99.90;;;;;;5103408;28;20089;-69
2023/10/13 14:02:19;;;;;;;19.50;9.25;;;19.30;99.90;;;;;;5103067;28;20016;-73
2023/10/13 14:04:46;;;;;;;26.73;8.73;;;19.30;99.90;;;;;;5102027;28;20020;-74
2023/10/13 14:07:14;;;;;;;24.52;8.38;;;19.40;99.90;;;;;;5103142;28;20143;-68
2023/10/13 14:09:43;;;;;;;19.25;8.27;;;19.40;99.90;;;;;;5102380;28;20035;-69
2023/10/13 14:14:56;;;;;;;23.70;8.35;;;19.60;99.90;;;;;;5102566;28;20042;-72
2023/10/13 14:17:28;;;;;;;25.77;8.70;;;19.60;99.90;;;;;;5102541;28;20054;-68
2023/10/13 14:19:59;;;;;;;21.60;8.70;;;19.70;99.90;;;;;;5102955;28;20094;-69
2023/10/13 14:22:25;;;;;;;17.38;6.97;;;19.80;99.90;;;;;;5102414;28;20055;-69
2023/10/13 14:24:55;;;;;;;29.80;7.85;;;19.90;99.90;;;;;;5103165;28;20024;-70
2023/10/13 14:27:23;;;;;;;24.50;7.97;;;19.90;99.90;;;;;;5102614;28;20032;-71
2023/10/13 14:29:52;;;;;;;18.52;7.10;;;19.90;99.90;;;;;;5100883;28;20024;-74
2023/10/13 14:32:19;;;;;;;21.95;7.22;;;20.00;99.90;;;;;;5101217;28;20020;-71
2023/10/13 14:34:54;;;;;;;29.08;8.95;;;20.00;99.90;;;;;;5102673;28;20032;-74
2023/10/13 14:37:26;;;;;;;23.80;7.97;;;20.00;99.90;;;;;;5102051;28;20039;-73
2023/10/13 14:39:59;;;;;;;18.65;7.80;;;20.00;99.90;;;;;;5100957;28;20091;-73
2023/10/13 14:42:26;;;;;;;19.42;7.28;;;20.00;99.90;;;;;;5101374;28;20032;-74
2023/10/13 14:44:56;;;;;;;19.58;7.57;;;20.00;99.90;;;;;;5102141;28;20028;-73
2023/10/13 14:47:27;;;;;;;27.30;8.35;;;20.00;99.90;;;;;;5101958;28;20024;-69
2023/10/13 14:49:59;;;;;;;28.33;7.60;;;20.00;99.90;;;;;;5102346;28;20036;-73
2023/10/13 14:52:26;;;;;;;21.08;7.68;;;20.10;99.90;;;;;;5102091;28;20020;-68
2023/10/13 14:54:57;;;;;;;17.63;7.65;;;20.10;99.90;;;;;;5102105;28;20074;-74
2023/10/13 14:57:26;;;;;;;24.73;8.55;;;20.10;99.90;;;;;;5102228;28;20096;-74
2023/10/13 14:59:55;;;;;;;16.00;6.40;;;20.10;99.90;;;;;;5101537;28;20027;-70
2023/10/13 15:02:21;;;;;;;15.23;7.00;;;20.10;99.90;;;;;;5102244;28;20035;-69
2023/10/13 15:04:50;;;;;;;27.23;8.70;;;20.10;99.90;;;;;;5101877;28;20065;-70
2023/10/13 15:07:20;;;;;;;21.52;7.93;;;20.10;99.90;;;;;;5098282;28;20012;-74
2023/10/13 15:09:45;;;;;;;25.23;9.07;;;20.00;99.90;;;;;;5101315;28;20081;-71
2023/10/13 15:12:11;;;;;;;25.45;8.18;;;20.10;99.90;;;;;;5101184;28;20036;-73
2023/10/13 15:14:43;;;;;;;18.20;7.53;;;20.00;99.90;;;;;;5101096;28;20133;-70
2023/10/13 15:17:10;;;;;;;24.08;8.25;;;20.00;99.90;;;;;;5099288;28;20039;-69
2023/10/13 15:19:42;;;;;;;26.63;8.80;;;19.90;99.90;;;;;;5100552;28;20043;-70
2023/10/13 15:22:21;;;;;;;19.90;7.43;;;19.90;99.90;;;;;;5100633;28;20026;-69
2023/10/13 15:24:59;;;;;;;22.90;8.50;;;19.90;99.90;;;;;;5101399;28;20508;-66
2023/10/13 15:27:28;;;;;;;20.48;8.07;;;19.90;99.90;;;;;;5099678;28;20111;-74
2023/10/13 15:29:54;;;;;;;25.50;8.15;;;19.90;99.90;;;;;;5101444;28;20029;-71
2023/10/13 15:35:05;;;;;;;17.25;7.68;;;19.80;99.90;;;;;;5101352;28;20543;-69
2023/10/13 15:37:30;;;;;;;20.90;6.68;;;19.90;99.90;;;;;;5101172;28;20104;-70
2023/10/13 15:39:57;;;;;;;18.75;7.65;;;19.80;99.90;;;;;;5101295;28;20111;-70
2023/10/13 15:42:23;;;;;;;25.63;8.27;;;19.80;99.90;;;;;;5101539;28;20043;-69
2023/10/13 15:44:50;;;;;;;13.90;6.35;;;19.70;99.90;;;;;;5101872;28;20029;-69
2023/10/13 15:47:15;;;;;;;20.80;7.93;;;19.60;99.90;;;;;;5101264;28;20024;-74
2023/10/13 15:49:42;;;;;;;22.10;7.25;;;19.50;99.90;;;;;;5101517;28;20111;-68
2023/10/13 15:52:09;;;;;;;20.70;8.15;;;19.40;99.90;;;;;;5101726;28;20024;-72
2023/10/13 15:54:35;;;;;;;19.95;8.10;;;19.40;99.90;;;;;;5101335;28;20408;-67
2023/10/13 15:57:01;;;;;;;21.60;7.93;;;19.30;99.90;;;;;;5101473;28;20118;-74
2023/10/13 15:59:27;;;;;;;23.42;7.95;;;19.30;99.90;;;;;;5099720;28;20024;-68
2023/10/13 16:01:57;;;;;;;20.95;8.18;;;19.30;99.90;;;;;;5101683;28;20483;-70